createdAt,value
2018-11-06T00:01:43.683Z,22.37
2018-11-06T00:04:58.402Z,20.57
2018-11-06T00:08:07.590Z,23.50
2018-11-06T00:11:16.880Z,22.17
2018-11-06T00:14:26.240Z,20.83
2018-11-06T00:17:35.839Z,26.00
2018-11-06T00:20:45.090Z,23.30
2018-11-06T00:23:54.377Z,26.00
2018-11-06T00:27:03.659Z,27.37
2018-11-06T00:30:13.784Z,22.07
2018-11-06T00:33:22.926Z,22.10
2018-11-06T00:36:33.095Z,26.03
2018-11-06T00:39:42.351Z,20.97
2018-11-06T00:42:51.674Z,20.60
2018-11-06T00:46:00.974Z,23.17
2018-11-06T00:49:10.227Z,24.03
2018-11-06T00:52:21.222Z,22.77
2018-11-06T00:55:30.496Z,20.27
2018-11-06T00:58:40.047Z,24.63
2018-11-06T01:01:49.250Z,21.40
2018-11-06T01:05:07.376Z,21.50
2018-11-06T01:08:18.240Z,21.50
2018-11-06T01:11:28.597Z,22.03
2018-11-06T01:14:38.447Z,20.67
2018-11-06T01:17:48.047Z,21.00
2018-11-06T01:20:58.483Z,22.37
2018-11-06T01:24:09.589Z,22.83
2018-11-06T01:27:18.903Z,21.13
2018-11-06T01:30:28.314Z,25.13
2018-11-06T01:33:37.634Z,24.83
2018-11-06T01:36:47.075Z,25.33
2018-11-06T01:39:56.226Z,21.23
2018-11-06T01:43:05.484Z,23.73
2018-11-06T01:46:14.718Z,23.30
2018-11-06T01:49:30.796Z,21.87
2018-11-06T01:52:40.375Z,22.00
2018-11-06T01:55:49.593Z,25.43
2018-11-06T01:58:58.711Z,19.40
2018-11-06T02:02:08.754Z,23.47
2018-11-06T02:05:18.782Z,22.57
2018-11-06T02:08:28.819Z,23.67
2018-11-06T02:11:38.311Z,23.03
2018-11-06T02:14:47.602Z,20.70
2018-11-06T02:18:03.785Z,22.57
2018-11-06T02:21:13.159Z,21.13
2018-11-06T02:24:22.536Z,23.37
2018-11-06T02:27:31.810Z,20.13
2018-11-06T02:30:40.983Z,21.83
2018-11-06T02:33:50.808Z,26.30
2018-11-06T02:37:01.367Z,24.73
2018-11-06T02:40:12.714Z,25.00
2018-11-06T02:43:22.242Z,24.10
2018-11-06T02:46:31.694Z,24.80
2018-11-06T02:49:41.057Z,23.37
2018-11-06T02:52:50.395Z,25.70
2018-11-06T02:55:59.849Z,24.43
2018-11-06T02:59:09.690Z,25.73
2018-11-06T03:02:18.854Z,26.97
2018-11-06T03:05:28.176Z,26.53
2018-11-06T03:08:37.459Z,26.27
2018-11-06T03:11:46.864Z,25.93
2018-11-06T03:14:56.239Z,26.37
2018-11-06T03:18:06.298Z,24.93
2018-11-06T03:21:15.583Z,27.50
2018-11-06T03:24:24.685Z,25.30
2018-11-06T03:27:33.830Z,27.53
2018-11-06T03:30:44.774Z,31.63
2018-11-06T03:33:55.133Z,25.37
2018-11-06T03:37:05.656Z,24.60
2018-11-06T03:40:15.002Z,26.47
2018-11-06T03:43:24.484Z,27.93
2018-11-06T03:46:35.011Z,26.87
2018-11-06T03:49:44.267Z,28.20
2018-11-06T03:52:53.370Z,28.13
2018-11-06T03:56:02.632Z,31.60
2018-11-06T03:59:12.108Z,30.00
2018-11-06T04:02:21.511Z,29.50
2018-11-06T04:05:34.526Z,29.60
2018-11-06T04:08:45.176Z,28.43
2018-11-06T04:11:58.081Z,29.27
2018-11-06T04:15:07.878Z,27.80
2018-11-06T04:18:19.614Z,27.87
2018-11-06T04:21:37.645Z,31.77
2018-11-06T04:24:46.975Z,31.37
2018-11-06T04:27:56.163Z,32.73
2018-11-06T04:31:05.395Z,30.13
2018-11-06T04:34:14.629Z,32.87
2018-11-06T04:37:23.790Z,31.13
2018-11-06T04:40:33.585Z,33.10
2018-11-06T04:43:42.740Z,33.57
2018-11-06T04:46:52.075Z,34.23
2018-11-06T04:50:01.284Z,31.40
2018-11-06T04:53:10.406Z,34.63
2018-11-06T04:56:27.051Z,33.03
2018-11-06T04:59:36.391Z,37.77
2018-11-06T05:02:45.681Z,32.57
2018-11-06T05:06:01.804Z,31.87
2018-11-06T05:09:11.226Z,33.97
2018-11-06T05:12:21.210Z,35.33
2018-11-06T05:15:31.158Z,37.40
2018-11-06T05:18:42.246Z,37.63
2018-11-06T05:21:53.910Z,36.27
2018-11-06T05:25:04.315Z,36.93
2018-11-06T05:28:14.758Z,39.17
2018-11-06T05:31:24.665Z,35.83
2018-11-06T05:34:34.074Z,41.80
2018-11-06T05:37:43.223Z,39.73
2018-11-06T05:40:58.286Z,41.53
2018-11-06T05:44:07.611Z,38.67
2018-11-06T05:47:16.794Z,39.47
2018-11-06T05:50:26.158Z,41.40
2018-11-06T05:53:35.296Z,41.83
2018-11-06T05:56:45.892Z,44.07
2018-11-06T05:59:55.401Z,44.67
2018-11-06T06:03:04.880Z,43.70
2018-11-06T06:06:14.139Z,44.47
2018-11-06T06:09:23.451Z,45.40
2018-11-06T06:12:32.628Z,53.40
2018-11-06T06:15:41.743Z,47.77
2018-11-06T06:18:51.112Z,53.80
2018-11-06T06:22:00.466Z,52.87
2018-11-06T06:25:09.796Z,48.90
2018-11-06T06:28:19.426Z,47.77
2018-11-06T06:31:28.816Z,58.53
2018-11-06T06:34:38.498Z,50.47
2018-11-06T06:37:47.831Z,49.63
2018-11-06T06:40:57.163Z,46.53
2018-11-06T06:44:06.684Z,50.87
2018-11-06T06:47:15.952Z,47.03
2018-11-06T06:50:25.410Z,52.37
2018-11-06T06:53:34.759Z,51.77
2018-11-06T06:56:44.143Z,52.03
2018-11-06T06:59:53.213Z,54.57
2018-11-06T07:03:02.576Z,53.00
2018-11-06T07:06:12.064Z,57.37
2018-11-06T07:09:21.350Z,50.80
2018-11-06T07:12:30.834Z,45.47
2018-11-06T07:15:40.046Z,43.63
2018-11-06T07:18:49.353Z,41.17
2018-11-06T07:21:58.602Z,44.83
2018-11-06T07:25:09.070Z,46.63
2018-11-06T07:28:18.220Z,43.43
2018-11-06T07:31:27.344Z,39.97
2018-11-06T07:34:36.713Z,34.03
2018-11-06T07:37:46.091Z,33.60
2018-11-06T07:40:55.444Z,37.37
2018-11-06T07:44:04.916Z,32.73
2018-11-06T07:47:14.060Z,33.70
2018-11-06T07:50:23.531Z,44.23
2018-11-06T07:53:32.755Z,37.13
2018-11-06T07:56:42.154Z,34.87
2018-11-06T07:59:51.905Z,34.07
2018-11-06T08:03:01.044Z,35.20
2018-11-06T08:06:10.278Z,35.80
2018-11-06T08:09:19.676Z,36.30
2018-11-06T08:12:29.067Z,37.07
2018-11-06T08:15:38.284Z,34.37
2018-11-06T08:18:47.526Z,34.87
2018-11-06T08:21:56.798Z,33.13
2018-11-06T08:25:06.681Z,31.53
2018-11-06T08:28:15.838Z,33.70
2018-11-06T08:31:25.478Z,33.07
2018-11-06T08:34:34.504Z,34.23
2018-11-06T08:37:43.911Z,39.23
2018-11-06T08:40:53.176Z,34.67
2018-11-06T08:44:02.713Z,35.77
2018-11-06T08:47:12.075Z,34.63
2018-11-06T08:50:21.391Z,33.87
2018-11-06T08:53:30.676Z,36.00
2018-11-06T08:56:39.978Z,35.40
2018-11-06T08:59:49.392Z,34.57
2018-11-06T09:02:58.834Z,37.90
2018-11-06T09:06:08.171Z,35.57
2018-11-06T09:10:00.836Z,34.87
2018-11-06T09:13:10.059Z,34.67
2018-11-06T09:16:19.217Z,32.50
2018-11-06T09:19:28.529Z,33.27
2018-11-06T09:22:37.795Z,36.73
2018-11-06T09:25:47.020Z,33.63
2018-11-06T09:28:56.475Z,36.17
2018-11-06T09:32:06.117Z,36.17
2018-11-06T09:35:15.651Z,33.13
2018-11-06T09:38:24.781Z,39.40
2018-11-06T09:41:34.068Z,34.60
2018-11-06T09:44:43.251Z,35.97
2018-11-06T09:47:52.453Z,34.63
2018-11-06T09:51:01.574Z,33.30
2018-11-06T09:54:10.836Z,41.23
2018-11-06T09:57:20.012Z,38.63
2018-11-06T10:00:29.316Z,35.33
2018-11-06T10:03:38.571Z,38.27
2018-11-06T10:06:48.101Z,42.47
2018-11-06T10:09:57.295Z,35.97
2018-11-06T10:13:06.444Z,34.87
2018-11-06T10:16:15.935Z,33.50
2018-11-06T10:19:25.304Z,38.87
2018-11-06T10:22:34.447Z,38.60
2018-11-06T10:25:43.755Z,34.63
2018-11-06T10:28:53.005Z,34.67
2018-11-06T10:32:02.316Z,34.53
2018-11-06T10:35:11.922Z,36.30
2018-11-06T10:38:21.188Z,35.20
2018-11-06T10:41:30.427Z,33.67
2018-11-06T10:44:39.748Z,29.37
2018-11-06T10:47:49.187Z,36.20
2018-11-06T10:50:58.480Z,34.03
2018-11-06T10:54:07.650Z,35.33
2018-11-06T10:57:17.119Z,36.93
2018-11-06T11:00:31.642Z,33.70
2018-11-06T11:03:49.043Z,37.50
2018-11-06T11:06:58.442Z,32.00
2018-11-06T11:10:07.664Z,32.70
2018-11-06T11:13:16.962Z,35.03
2018-11-06T11:16:26.047Z,33.23
2018-11-06T11:19:35.375Z,33.73
2018-11-06T11:22:44.658Z,33.97
2018-11-06T11:25:53.998Z,34.73
2018-11-06T11:29:03.120Z,33.87
2018-11-06T11:32:12.253Z,35.57
2018-11-06T11:35:21.447Z,38.50
2018-11-06T11:38:30.876Z,29.90
2018-11-06T11:41:40.366Z,31.83
2018-11-06T11:44:49.508Z,34.03
2018-11-06T11:47:58.891Z,31.20
2018-11-06T11:51:08.136Z,33.27
2018-11-06T11:54:17.395Z,32.57
2018-11-06T11:57:26.958Z,27.10
2018-11-06T12:00:38.185Z,30.67
2018-11-06T12:03:47.517Z,29.63
2018-11-06T12:06:56.785Z,29.23
2018-11-06T12:10:06.769Z,29.77
2018-11-06T12:13:15.995Z,27.43
2018-11-06T12:16:25.368Z,28.40
2018-11-06T12:19:34.666Z,26.70
2018-11-06T12:22:43.917Z,28.60
2018-11-06T12:25:53.200Z,25.03
2018-11-06T12:29:02.305Z,29.67
2018-11-06T12:32:11.740Z,28.67
2018-11-06T12:35:21.090Z,27.73
2018-11-06T12:38:30.319Z,31.77
2018-11-06T12:41:39.513Z,29.07
2018-11-06T12:44:48.701Z,25.30
2018-11-06T12:47:57.918Z,24.93
2018-11-06T12:51:07.420Z,26.53
2018-11-06T12:54:18.717Z,27.50
2018-11-06T12:57:28.068Z,28.67
2018-11-06T13:00:37.323Z,25.27
2018-11-06T13:03:46.752Z,24.53
2018-11-06T13:06:55.896Z,24.73
2018-11-06T13:10:05.208Z,25.20
2018-11-06T13:13:14.297Z,27.17
2018-11-06T13:16:23.507Z,25.67
2018-11-06T13:19:32.667Z,27.90
2018-11-06T13:22:42.653Z,25.07
2018-11-06T13:25:51.864Z,25.73
2018-11-06T13:29:01.022Z,28.13
2018-11-06T13:32:10.414Z,26.50
2018-11-06T13:35:19.532Z,28.93
2018-11-06T13:38:28.899Z,26.93
2018-11-06T13:41:38.171Z,28.37
2018-11-06T13:44:47.714Z,24.10
2018-11-06T13:47:56.585Z,24.67
2018-11-06T13:51:05.963Z,26.80
2018-11-06T13:54:15.307Z,25.93
2018-11-06T13:57:24.697Z,25.57
2018-11-06T14:00:33.988Z,26.43
2018-11-06T14:03:43.275Z,28.13
2018-11-06T14:06:52.426Z,33.60
2018-11-06T14:10:01.553Z,27.27
2018-11-06T14:13:10.819Z,27.63
2018-11-06T14:16:20.145Z,26.77
2018-11-06T14:19:29.372Z,26.77
2018-11-06T14:22:38.599Z,30.30
2018-11-06T14:25:47.773Z,27.23
2018-11-06T14:28:57.178Z,27.93
2018-11-06T14:32:06.467Z,31.90
2018-11-06T14:35:16.874Z,27.17
2018-11-06T14:38:26.214Z,27.80
2018-11-06T14:41:35.956Z,30.77
2018-11-06T14:44:45.070Z,28.13
2018-11-06T14:47:54.344Z,29.70
2018-11-06T14:51:03.631Z,28.90
2018-11-06T14:54:12.749Z,28.67
2018-11-06T14:57:22.041Z,29.80
2018-11-06T15:00:31.154Z,30.03
2018-11-06T15:03:40.303Z,30.33
2018-11-06T15:06:49.615Z,33.23
2018-11-06T15:09:58.896Z,32.80
2018-11-06T15:13:08.195Z,30.37
2018-11-06T15:16:17.489Z,27.10
2018-11-06T15:19:26.891Z,31.73
2018-11-06T15:22:43.441Z,28.97
2018-11-06T15:25:52.693Z,31.87
2018-11-06T15:29:01.984Z,30.20
2018-11-06T15:32:11.509Z,32.27
2018-11-06T15:35:22.015Z,31.70
2018-11-06T15:38:31.279Z,31.40
2018-11-06T15:41:41.551Z,28.17
2018-11-06T15:44:50.867Z,32.67
2018-11-06T15:47:59.998Z,33.87
2018-11-06T15:51:09.316Z,31.70
2018-11-06T15:54:18.568Z,31.60
2018-11-06T15:57:27.735Z,35.37
2018-11-06T16:00:37.038Z,37.37
2018-11-06T16:03:46.477Z,35.83
2018-11-06T16:06:55.881Z,36.60
2018-11-06T16:10:09.102Z,36.43
2018-11-06T16:13:18.219Z,36.43
2018-11-06T16:16:27.423Z,33.33
2018-11-06T16:19:36.731Z,37.13
2018-11-06T16:22:46.240Z,39.13
2018-11-06T16:25:55.528Z,35.00
2018-11-06T16:29:05.275Z,33.20
2018-11-06T16:32:14.566Z,33.53
2018-11-06T16:35:24.002Z,34.07
2018-11-06T16:38:33.170Z,34.50
2018-11-06T16:41:42.741Z,36.03
2018-11-06T16:44:52.101Z,35.87
2018-11-06T16:48:01.266Z,35.37
2018-11-06T16:51:10.510Z,35.97
2018-11-06T16:54:19.680Z,36.77
2018-11-06T16:57:29.080Z,36.43
2018-11-06T17:00:38.471Z,34.47
2018-11-06T17:03:47.792Z,34.63
2018-11-06T17:06:57.011Z,33.93
2018-11-06T17:10:08.028Z,36.07
2018-11-06T17:13:17.488Z,41.53
2018-11-06T17:16:26.683Z,39.03
2018-11-06T17:19:36.034Z,35.73
2018-11-06T17:22:45.296Z,45.50
2018-11-06T17:25:54.640Z,42.27
2018-11-06T17:29:04.545Z,38.07
2018-11-06T17:32:13.867Z,41.63
2018-11-06T17:35:22.971Z,40.90
2018-11-06T17:38:32.448Z,39.70
2018-11-06T17:41:41.887Z,41.50
2018-11-06T17:44:50.968Z,39.80
2018-11-06T17:48:00.275Z,41.33
2018-11-06T17:51:09.502Z,45.67
2018-11-06T17:54:18.822Z,43.87
2018-11-06T17:57:28.146Z,43.77
2018-11-06T18:00:37.319Z,43.13
2018-11-06T18:03:46.458Z,43.83
2018-11-06T18:06:55.754Z,43.57
2018-11-06T18:10:06.085Z,43.90
2018-11-06T18:13:15.355Z,43.57
2018-11-06T18:16:24.595Z,44.27
2018-11-06T18:19:34.184Z,42.90
2018-11-06T18:22:44.152Z,42.50
2018-11-06T18:25:53.692Z,41.97
2018-11-06T18:29:02.691Z,43.43
2018-11-06T18:32:12.012Z,41.13
2018-11-06T18:35:21.063Z,41.23
2018-11-06T18:38:30.349Z,39.50
2018-11-06T18:41:39.567Z,39.87
2018-11-06T18:44:49.008Z,46.73
2018-11-06T18:47:58.351Z,39.90
2018-11-06T18:51:07.832Z,41.03
2018-11-06T18:54:17.229Z,40.37
2018-11-06T18:57:26.752Z,43.10
2018-11-06T19:00:36.031Z,44.23
2018-11-06T19:03:45.447Z,43.87
2018-11-06T19:06:54.842Z,46.70
2018-11-06T19:10:04.172Z,48.67
2018-11-06T19:13:13.527Z,40.77
2018-11-06T19:16:22.874Z,43.80
2018-11-06T19:19:32.181Z,42.80
2018-11-06T19:22:41.493Z,42.27
2018-11-06T19:25:50.872Z,41.57
2018-11-06T19:29:00.289Z,43.77
2018-11-06T19:32:09.520Z,47.13
2018-11-06T19:35:18.926Z,44.17
2018-11-06T19:38:28.169Z,41.93
2018-11-06T19:41:37.668Z,49.37
2018-11-06T19:44:46.863Z,44.73
2018-11-06T19:47:56.405Z,48.77
2018-11-06T19:51:05.643Z,44.70
2018-11-06T19:54:15.116Z,45.80
2018-11-06T19:57:24.329Z,46.70
2018-11-06T20:00:33.723Z,50.00
2018-11-06T20:03:42.973Z,49.60
2018-11-06T20:06:52.054Z,50.10
2018-11-06T20:10:01.434Z,49.83
2018-11-06T20:13:10.786Z,47.30
2018-11-06T20:16:20.068Z,48.00
2018-11-06T20:19:29.473Z,42.40
2018-11-06T20:22:38.858Z,46.87
2018-11-06T20:25:48.136Z,43.60
2018-11-06T20:28:57.533Z,45.50
2018-11-06T20:32:06.689Z,47.87
2018-11-06T20:35:16.231Z,46.33
2018-11-06T20:38:25.579Z,49.40
2018-11-06T20:41:34.844Z,51.27
2018-11-06T20:44:44.041Z,47.30
2018-11-06T20:47:53.198Z,52.43
2018-11-06T20:51:02.414Z,48.27
2018-11-06T20:54:11.778Z,49.43
2018-11-06T20:57:21.202Z,56.80
2018-11-06T21:00:30.808Z,51.17
2018-11-06T21:03:40.124Z,51.57
2018-11-06T21:06:49.406Z,51.60
2018-11-06T21:09:58.653Z,54.13
2018-11-06T21:13:08.047Z,51.83
2018-11-06T21:16:17.307Z,50.80
2018-11-06T21:19:26.734Z,55.03
2018-11-06T21:22:35.898Z,49.63
2018-11-06T21:25:45.285Z,54.13
2018-11-06T21:28:54.441Z,54.57
2018-11-06T21:32:03.932Z,54.00
2018-11-06T21:35:13.111Z,51.10
2018-11-06T21:38:22.553Z,53.90
2018-11-06T21:41:31.931Z,53.40
2018-11-06T21:44:41.123Z,53.13
2018-11-06T21:47:50.931Z,55.73
2018-11-06T21:51:00.224Z,57.10
2018-11-06T21:54:09.513Z,59.73
2018-11-06T21:57:18.877Z,56.83
2018-11-06T22:00:28.881Z,55.10
2018-11-06T22:03:38.168Z,56.63
2018-11-06T22:06:47.377Z,56.07
2018-11-06T22:09:56.714Z,58.33
2018-11-06T22:13:05.886Z,58.77
2018-11-06T22:16:15.212Z,60.20
2018-11-06T22:19:24.386Z,57.03
2018-11-06T22:22:33.967Z,53.17
2018-11-06T22:25:43.220Z,55.47
2018-11-06T22:28:52.431Z,55.97
2018-11-06T22:32:01.779Z,54.30
2018-11-06T22:35:12.619Z,53.87
2018-11-06T22:38:21.752Z,55.20
2018-11-06T22:41:31.156Z,53.20
2018-11-06T22:44:40.354Z,52.10
2018-11-06T22:47:49.551Z,56.70
2018-11-06T22:50:58.863Z,52.83
2018-11-06T22:54:08.181Z,51.50
2018-11-06T22:57:17.528Z,55.47
2018-11-06T23:00:32.935Z,54.53
2018-11-06T23:03:42.635Z,54.70
2018-11-06T23:06:52.032Z,58.87
2018-11-06T23:10:01.326Z,50.47
2018-11-06T23:13:10.890Z,54.47
2018-11-06T23:16:20.124Z,56.53
2018-11-06T23:19:29.303Z,55.97
2018-11-06T23:22:38.935Z,57.37
2018-11-06T23:25:48.274Z,56.67
2018-11-06T23:28:57.579Z,56.00
2018-11-06T23:32:06.736Z,59.17
2018-11-06T23:35:17.324Z,55.77
2018-11-06T23:38:28.643Z,60.60
2018-11-06T23:41:39.410Z,55.57
2018-11-06T23:44:51.049Z,56.63
2018-11-06T23:48:02.803Z,55.30
2018-11-06T23:51:12.049Z,53.80
2018-11-06T23:54:21.332Z,55.10
2018-11-06T23:57:30.821Z,50.70
